createdAt,value
2023-05-04T00:00:48.191Z,935.30
2023-05-04T00:01:48.086Z,935.32
2023-05-04T00:02:48.270Z,935.32
2023-05-04T00:03:48.311Z,935.28
2023-05-04T00:04:48.250Z,935.27
2023-05-04T00:05:48.159Z,935.27
2023-05-04T00:06:48.267Z,935.26
2023-05-04T00:07:48.180Z,935.25
2023-05-04T00:08:48.193Z,935.25
2023-05-04T00:09:48.205Z,935.34
2023-05-04T00:10:48.242Z,935.28
2023-05-04T00:11:48.247Z,935.29
2023-05-04T00:12:48.497Z,935.30
2023-05-04T00:13:48.267Z,935.30
2023-05-04T00:14:48.281Z,935.28
2023-05-04T00:15:48.355Z,935.28
2023-05-04T00:16:48.556Z,935.26
2023-05-04T00:17:48.423Z,935.31
2023-05-04T00:18:48.476Z,935.27
2023-05-04T00:19:48.363Z,935.30
2023-05-04T00:20:48.385Z,935.34
2023-05-04T00:21:48.393Z,935.36
2023-05-04T00:22:48.418Z,935.35
2023-05-04T00:23:48.425Z,935.37
2023-05-04T00:24:48.552Z,935.34
2023-05-04T00:25:48.464Z,935.36
2023-05-04T00:26:48.475Z,935.39
2023-05-04T00:27:48.486Z,935.35
2023-05-04T00:28:48.507Z,935.33
2023-05-04T00:29:48.633Z,935.29
2023-05-04T00:30:48.539Z,935.31
2023-05-04T00:31:48.589Z,935.30
2023-05-04T00:32:48.650Z,935.30
2023-05-04T00:33:48.593Z,935.27
2023-05-04T00:34:48.597Z,935.27
2023-05-04T00:35:48.726Z,935.28
2023-05-04T00:36:48.637Z,935.29
2023-05-04T00:37:48.645Z,935.30
2023-05-04T00:38:48.662Z,935.28
2023-05-04T00:39:48.685Z,935.29
2023-05-04T00:40:48.797Z,935.25
2023-05-04T00:41:48.733Z,935.23
2023-05-04T00:42:48.731Z,935.27
2023-05-04T00:43:48.767Z,935.26
2023-05-04T00:44:48.755Z,935.30
2023-05-04T00:45:48.772Z,935.28
2023-05-04T00:46:49.010Z,935.29
2023-05-04T00:47:48.842Z,935.33
2023-05-04T00:48:48.845Z,935.33
2023-05-04T00:49:48.839Z,935.32
2023-05-04T00:50:48.848Z,935.33
2023-05-04T00:51:48.871Z,935.34
2023-05-04T00:52:48.980Z,935.30
2023-05-04T00:53:48.903Z,935.33
2023-05-04T00:54:48.912Z,935.33
2023-05-04T00:55:48.925Z,935.28
2023-05-04T00:56:48.950Z,935.27
2023-05-04T00:57:49.065Z,935.30
2023-05-04T00:58:48.980Z,935.27
2023-05-04T00:59:48.999Z,935.27
2023-05-04T01:00:49.085Z,935.26
2023-05-04T01:01:49.020Z,935.22
2023-05-04T01:02:49.076Z,935.24
2023-05-04T01:03:49.212Z,935.25
2023-05-04T01:04:49.092Z,935.25
2023-05-04T01:05:49.084Z,935.22
2023-05-04T01:06:49.178Z,935.22
2023-05-04T01:07:49.127Z,935.23
2023-05-04T01:08:49.129Z,935.21
2023-05-04T01:09:49.245Z,935.19
2023-05-04T01:10:49.168Z,935.15
2023-05-04T01:11:49.182Z,935.16
2023-05-04T01:12:49.238Z,935.18
2023-05-04T01:13:49.218Z,935.17
2023-05-04T01:14:49.328Z,935.15
2023-05-04T01:15:49.236Z,935.15
2023-05-04T01:16:49.279Z,935.13
2023-05-04T01:17:49.282Z,935.15
2023-05-04T01:18:49.299Z,935.18
2023-05-04T01:19:49.312Z,935.19
2023-05-04T01:20:49.482Z,935.21
2023-05-04T01:21:49.330Z,935.24
2023-05-04T01:22:49.347Z,935.25
2023-05-04T01:23:49.370Z,935.32
2023-05-04T01:24:49.378Z,935.31
2023-05-04T01:25:49.602Z,935.32
2023-05-04T01:26:49.515Z,935.34
2023-05-04T01:27:49.424Z,935.30
2023-05-04T01:28:49.453Z,935.27
2023-05-04T01:29:49.472Z,935.24
2023-05-04T01:30:49.501Z,935.23
2023-05-04T01:31:49.601Z,935.24
2023-05-04T01:32:49.549Z,935.18
2023-05-04T01:33:49.527Z,935.20
2023-05-04T01:34:49.542Z,935.18
2023-05-04T01:35:49.546Z,935.18
2023-05-04T01:36:49.586Z,935.23
2023-05-04T01:37:49.684Z,935.27
2023-05-04T01:38:49.602Z,935.28
2023-05-04T01:39:49.617Z,935.26
2023-05-04T01:40:49.656Z,935.27
2023-05-04T01:41:49.637Z,935.32
2023-05-04T01:42:49.756Z,935.30
2023-05-04T01:43:49.665Z,935.35
2023-05-04T01:44:49.701Z,935.29
2023-05-04T01:45:49.763Z,935.29
2023-05-04T01:46:49.720Z,935.33
2023-05-04T01:47:49.950Z,935.26
2023-05-04T01:48:49.760Z,935.27
2023-05-04T01:49:49.766Z,935.24
2023-05-04T01:50:49.780Z,935.23
2023-05-04T01:51:49.788Z,935.25
2023-05-04T01:52:49.854Z,935.22
2023-05-04T01:53:49.924Z,935.27
2023-05-04T01:54:49.834Z,935.24
2023-05-04T01:55:49.877Z,935.27
2023-05-04T01:56:49.873Z,935.25
2023-05-04T01:57:49.884Z,935.24
2023-05-04T01:58:49.896Z,935.27
2023-05-04T01:59:50.021Z,935.27
2023-05-04T02:00:49.936Z,935.27
2023-05-04T02:01:49.960Z,935.29
2023-05-04T02:02:50.125Z,935.33
2023-05-04T02:03:50.050Z,935.30
2023-05-04T02:04:50.010Z,935.31
2023-05-04T02:05:50.110Z,935.28
2023-05-04T02:06:50.026Z,935.30
2023-05-04T02:07:50.041Z,935.32
2023-05-04T02:08:50.080Z,935.29
2023-05-04T02:09:50.075Z,935.29
2023-05-04T02:10:50.101Z,935.30
2023-05-04T02:11:50.220Z,935.32
2023-05-04T02:12:50.146Z,935.32
2023-05-04T02:13:50.148Z,935.32
2023-05-04T02:14:50.149Z,935.28
2023-05-04T02:15:50.206Z,935.31
2023-05-04T02:16:50.181Z,935.31
2023-05-04T02:17:50.335Z,935.27
2023-05-04T02:18:50.213Z,935.29
2023-05-04T02:19:50.222Z,935.28
2023-05-04T02:20:50.236Z,935.30
2023-05-04T02:21:50.256Z,935.29
2023-05-04T02:22:50.362Z,935.28
2023-05-04T02:23:50.300Z,935.33
2023-05-04T02:24:50.328Z,935.31
2023-05-04T02:25:50.318Z,935.29
2023-05-04T02:26:50.342Z,935.27
2023-05-04T02:27:50.449Z,935.24
2023-05-04T02:28:50.356Z,935.26
2023-05-04T02:29:50.376Z,935.22
2023-05-04T02:30:50.395Z,935.26
2023-05-04T02:31:50.449Z,935.19
2023-05-04T02:32:50.547Z,935.19
2023-05-04T02:33:50.441Z,935.18
2023-05-04T02:34:50.450Z,935.17
2023-05-04T02:35:50.472Z,935.14
2023-05-04T02:36:50.479Z,935.20
2023-05-04T02:37:50.504Z,935.12
2023-05-04T02:38:50.621Z,935.14
2023-05-04T02:39:50.534Z,935.12
2023-05-04T02:40:50.568Z,935.13
2023-05-04T02:41:50.560Z,935.13
2023-05-04T02:42:50.584Z,935.14
2023-05-04T02:43:50.595Z,935.14
2023-05-04T02:44:50.708Z,935.13
2023-05-04T02:45:50.629Z,935.08
2023-05-04T02:46:50.644Z,935.08
2023-05-04T02:47:50.719Z,935.06
2023-05-04T02:48:50.669Z,935.03
2023-05-04T02:49:50.696Z,935.05
2023-05-04T02:50:50.803Z,935.02
2023-05-04T02:51:50.721Z,935.01
2023-05-04T02:52:50.728Z,935.01
2023-05-04T02:53:50.752Z,934.97
2023-05-04T02:54:53.029Z,934.94
2023-05-04T02:55:50.790Z,934.90
2023-05-04T02:56:50.915Z,934.93
2023-05-04T02:57:50.811Z,934.89
2023-05-04T02:58:50.827Z,934.88
2023-05-04T02:59:50.850Z,934.90
2023-05-04T03:00:50.921Z,934.90
2023-05-04T03:01:50.995Z,934.93
2023-05-04T03:02:51.020Z,934.90
2023-05-04T03:03:50.942Z,934.91
2023-05-04T03:04:50.918Z,934.92
2023-05-04T03:05:50.934Z,934.94
2023-05-04T03:06:50.953Z,934.89
2023-05-04T03:07:51.079Z,934.90
2023-05-04T03:08:50.974Z,934.90
2023-05-04T03:09:50.990Z,934.88
2023-05-04T03:10:51.208Z,934.88
2023-05-04T03:11:51.028Z,934.87
2023-05-04T03:12:51.113Z,934.88
2023-05-04T03:13:51.154Z,934.82
2023-05-04T03:14:51.108Z,934.81
2023-05-04T03:15:51.082Z,934.84
2023-05-04T03:16:51.118Z,934.80
2023-05-04T03:17:51.151Z,934.81
2023-05-04T03:18:51.144Z,934.79
2023-05-04T03:19:51.249Z,934.83
2023-05-04T03:20:51.165Z,934.82
2023-05-04T03:21:51.184Z,934.82
2023-05-04T03:22:51.220Z,934.80
2023-05-04T03:23:51.228Z,934.79
2023-05-04T03:24:51.243Z,934.80
2023-05-04T03:25:51.337Z,934.78
2023-05-04T03:26:51.727Z,934.80
2023-05-04T03:27:51.272Z,934.78
2023-05-04T03:28:51.318Z,934.83
2023-05-04T03:29:51.301Z,934.85
2023-05-04T03:30:51.318Z,934.86
2023-05-04T03:31:51.476Z,934.86
2023-05-04T03:32:51.373Z,934.83
2023-05-04T03:33:51.364Z,934.77
2023-05-04T03:34:51.377Z,934.78
2023-05-04T03:35:51.393Z,934.73
2023-05-04T03:36:51.411Z,934.70
2023-05-04T03:37:51.528Z,934.70
2023-05-04T03:38:51.432Z,934.67
2023-05-04T03:39:51.446Z,934.67
2023-05-04T03:40:51.469Z,934.67
2023-05-04T03:41:51.477Z,934.68
2023-05-04T03:42:51.499Z,934.70
2023-05-04T03:43:51.614Z,934.73
2023-05-04T03:44:51.562Z,934.74
2023-05-04T03:45:51.611Z,934.77
2023-05-04T03:46:51.555Z,934.73
2023-05-04T03:47:51.635Z,934.69
2023-05-04T03:48:51.691Z,934.68
2023-05-04T03:49:51.599Z,934.67
2023-05-04T03:50:51.613Z,934.64
2023-05-04T03:51:51.638Z,934.64
2023-05-04T03:52:51.652Z,934.59
2023-05-04T03:53:51.661Z,934.61
2023-05-04T03:54:51.782Z,934.61
2023-05-04T03:55:51.697Z,934.62
2023-05-04T03:56:51.715Z,934.64
2023-05-04T03:57:51.718Z,934.64
2023-05-04T03:58:51.740Z,934.70
2023-05-04T03:59:51.749Z,934.66
2023-05-04T04:00:51.936Z,934.70
2023-05-04T04:01:51.780Z,934.69
2023-05-04T04:02:51.854Z,934.70
2023-05-04T04:03:51.887Z,934.67
2023-05-04T04:04:51.822Z,934.68
2023-05-04T04:05:51.951Z,934.71
2023-05-04T04:06:51.863Z,934.75
2023-05-04T04:07:51.875Z,934.74
2023-05-04T04:08:51.904Z,934.77
2023-05-04T04:09:51.908Z,934.81
2023-05-04T04:10:51.923Z,934.79
2023-05-04T04:11:52.033Z,934.85
2023-05-04T04:12:51.964Z,934.80
2023-05-04T04:13:51.960Z,934.78
2023-05-04T04:14:51.986Z,934.80
2023-05-04T04:15:52.053Z,934.73
2023-05-04T04:16:52.042Z,934.69
2023-05-04T04:17:52.212Z,934.70
2023-05-04T04:18:52.038Z,934.70
2023-05-04T04:19:52.052Z,934.65
2023-05-04T04:20:52.088Z,934.66
2023-05-04T04:21:52.091Z,934.69
2023-05-04T04:22:52.104Z,934.69
2023-05-04T04:23:52.224Z,934.69
2023-05-04T04:24:52.135Z,934.68
2023-05-04T04:25:52.153Z,934.68
2023-05-04T04:26:52.168Z,934.66
2023-05-04T04:27:52.198Z,934.69
2023-05-04T04:28:52.192Z,934.66
2023-05-04T04:29:52.311Z,934.64
2023-05-04T04:30:52.237Z,934.63
2023-05-04T04:31:52.332Z,934.63
2023-05-04T04:32:52.338Z,934.66
2023-05-04T04:33:52.271Z,934.66
2023-05-04T04:34:52.381Z,934.67
2023-05-04T04:35:52.303Z,934.64
2023-05-04T04:36:52.310Z,934.63
2023-05-04T04:37:52.327Z,934.62
2023-05-04T04:38:52.345Z,934.64
2023-05-04T04:39:52.362Z,934.67
2023-05-04T04:40:52.480Z,934.68
2023-05-04T04:41:52.385Z,934.67
2023-05-04T04:42:52.406Z,934.71
2023-05-04T04:43:52.426Z,934.71
2023-05-04T04:44:52.439Z,934.68
2023-05-04T04:45:52.564Z,934.74
2023-05-04T04:46:52.516Z,934.72
2023-05-04T04:47:52.543Z,934.74
2023-05-04T04:48:52.541Z,934.75
2023-05-04T04:49:52.511Z,934.69
2023-05-04T04:50:52.636Z,934.70
2023-05-04T04:51:52.540Z,934.69
2023-05-04T04:52:52.552Z,934.68
2023-05-04T04:53:52.567Z,934.68
2023-05-04T04:54:52.588Z,934.68
2023-05-04T04:55:52.701Z,934.66
2023-05-04T04:56:52.632Z,934.67
2023-05-04T04:57:52.640Z,934.69
2023-05-04T04:58:52.640Z,934.70
2023-05-04T04:59:52.658Z,934.71
2023-05-04T05:00:52.742Z,934.73
2023-05-04T05:01:52.800Z,934.72
2023-05-04T05:02:52.738Z,934.72
2023-05-04T05:03:52.715Z,934.72
2023-05-04T05:04:52.853Z,934.72
2023-05-04T05:05:52.762Z,934.67
2023-05-04T05:06:52.871Z,934.72
2023-05-04T05:07:52.787Z,934.75
2023-05-04T05:08:52.795Z,934.75
2023-05-04T05:09:52.808Z,934.73
2023-05-04T05:10:52.829Z,934.76
2023-05-04T05:11:52.845Z,934.69
2023-05-04T05:12:52.976Z,934.73
2023-05-04T05:13:52.890Z,934.72
2023-05-04T05:14:52.895Z,934.75
2023-05-04T05:15:52.908Z,934.75
2023-05-04T05:16:52.982Z,934.77
2023-05-04T05:17:52.976Z,934.74
2023-05-04T05:18:53.045Z,934.75
2023-05-04T05:19:52.964Z,934.79
2023-05-04T05:20:53.015Z,934.75
2023-05-04T05:21:53.011Z,934.74
2023-05-04T05:22:53.018Z,934.75
2023-05-04T05:23:53.131Z,934.78
2023-05-04T05:24:53.048Z,934.74
2023-05-04T05:25:53.050Z,934.75
2023-05-04T05:26:53.073Z,934.79
2023-05-04T05:27:53.091Z,934.80
2023-05-04T05:28:53.102Z,934.83
2023-05-04T05:29:53.215Z,934.86
2023-05-04T05:30:53.179Z,934.84
2023-05-04T05:31:53.159Z,934.85
2023-05-04T05:32:53.161Z,934.84
2023-05-04T05:33:53.178Z,934.82
2023-05-04T05:34:53.289Z,934.79
2023-05-04T05:35:53.215Z,934.82
2023-05-04T05:36:53.301Z,934.81
2023-05-04T05:37:53.233Z,934.79
2023-05-04T05:38:53.254Z,934.81
2023-05-04T05:39:53.269Z,934.76
2023-05-04T05:40:53.384Z,934.74
2023-05-04T05:41:53.294Z,934.76
2023-05-04T05:42:53.303Z,934.73
2023-05-04T05:43:53.329Z,934.74
2023-05-04T05:44:53.341Z,934.72
2023-05-04T05:45:53.480Z,934.76
2023-05-04T05:46:53.365Z,934.71
2023-05-04T05:47:53.396Z,934.74
2023-05-04T05:48:53.395Z,934.70
2023-05-04T05:49:53.422Z,934.72
2023-05-04T05:50:53.529Z,934.73
2023-05-04T05:51:53.443Z,934.69
2023-05-04T05:52:53.489Z,934.70
2023-05-04T05:53:53.498Z,934.70
2023-05-04T05:54:53.487Z,934.70
2023-05-04T05:55:53.499Z,934.71
2023-05-04T05:56:53.619Z,934.71
2023-05-04T05:57:53.527Z,934.71
2023-05-04T05:58:53.546Z,934.73
2023-05-04T05:59:53.559Z,934.74
2023-05-04T06:00:53.579Z,934.76
2023-05-04T06:01:53.597Z,934.78
2023-05-04T06:02:53.870Z,934.77
2023-05-04T06:03:53.802Z,934.77
2023-05-04T06:04:53.764Z,934.72
2023-05-04T06:05:53.657Z,934.73
2023-05-04T06:06:53.676Z,934.72
2023-05-04T06:07:53.687Z,934.72
2023-05-04T06:08:53.821Z,934.74
2023-05-04T06:09:53.725Z,934.72
2023-05-04T06:10:53.730Z,934.77
2023-05-04T06:11:55.468Z,934.72
2023-05-04T06:12:53.773Z,934.73
2023-05-04T06:13:53.769Z,934.74
2023-05-04T06:14:53.894Z,934.70
2023-05-04T06:15:53.861Z,934.73
2023-05-04T06:16:53.818Z,934.71
2023-05-04T06:17:53.924Z,934.68
2023-05-04T06:18:53.855Z,934.67
2023-05-04T06:19:53.970Z,934.69
2023-05-04T06:20:53.875Z,934.64
2023-05-04T06:21:53.893Z,934.60
2023-05-04T06:22:53.911Z,934.57
2023-05-04T06:23:53.923Z,934.58
2023-05-04T06:24:57.606Z,934.60
2023-05-04T06:25:54.056Z,934.59
2023-05-04T06:26:53.989Z,934.59
2023-05-04T06:27:53.986Z,934.55
2023-05-04T06:28:54.009Z,934.58
2023-05-04T06:29:54.014Z,934.53
2023-05-04T06:30:54.126Z,934.51
2023-05-04T06:31:54.082Z,934.51
2023-05-04T06:32:54.085Z,934.48
2023-05-04T06:33:54.068Z,934.47
2023-05-04T06:34:54.100Z,934.43
2023-05-04T06:35:54.097Z,934.47
2023-05-04T06:36:54.208Z,934.43
2023-05-04T06:37:54.144Z,934.45
2023-05-04T06:38:54.144Z,934.46
2023-05-04T06:39:54.167Z,934.48
2023-05-04T06:40:54.205Z,934.48
2023-05-04T06:41:54.185Z,934.47
2023-05-04T06:42:54.299Z,934.46
2023-05-04T06:43:55.230Z,934.48
2023-05-04T06:44:54.251Z,934.44
2023-05-04T06:45:54.323Z,934.45
2023-05-04T06:46:54.268Z,934.43
2023-05-04T06:47:54.407Z,934.40
2023-05-04T06:48:54.302Z,934.43
2023-05-04T06:49:54.303Z,934.43
2023-05-04T06:50:54.323Z,934.39
2023-05-04T06:51:54.338Z,934.37
2023-05-04T06:52:54.468Z,934.36
2023-05-04T06:53:54.380Z,934.38
2023-05-04T06:54:54.380Z,934.37
2023-05-04T06:55:54.396Z,934.41
2023-05-04T06:56:54.440Z,934.43
2023-05-04T06:57:54.535Z,934.44
2023-05-04T06:58:54.448Z,934.47
2023-05-04T06:59:54.461Z,934.42
2023-05-04T07:00:54.489Z,934.45
2023-05-04T07:01:54.487Z,934.42
2023-05-04T07:02:54.634Z,934.39
2023-05-04T07:03:54.572Z,934.39
2023-05-04T07:04:54.547Z,934.36
2023-05-04T07:05:54.556Z,934.34
2023-05-04T07:06:54.559Z,934.29
2023-05-04T07:07:54.579Z,934.27
2023-05-04T07:08:54.694Z,934.24
2023-05-04T07:09:54.643Z,934.24
2023-05-04T07:10:54.630Z,934.22
2023-05-04T07:11:54.641Z,934.19
2023-05-04T07:12:54.729Z,934.21
2023-05-04T07:13:54.666Z,934.22
2023-05-04T07:14:54.787Z,934.19
2023-05-04T07:15:54.706Z,934.19
2023-05-04T07:16:54.723Z,934.21
2023-05-04T07:17:54.755Z,934.22
2023-05-04T07:18:54.759Z,934.22
2023-05-04T07:19:54.758Z,934.23
2023-05-04T07:21:01.854Z,934.22
2023-05-04T07:21:54.781Z,934.23
2023-05-04T07:22:54.796Z,934.24
2023-05-04T07:23:54.817Z,934.27
2023-05-04T07:24:54.832Z,934.24
2023-05-04T07:25:54.846Z,934.25
2023-05-04T07:26:54.954Z,934.26
2023-05-04T07:27:54.887Z,934.23
2023-05-04T07:28:54.918Z,934.25
2023-05-04T07:29:54.908Z,934.23
2023-05-04T07:30:54.920Z,934.24
2023-05-04T07:31:55.018Z,934.26
2023-05-04T07:32:55.088Z,934.27
2023-05-04T07:33:54.956Z,934.30
2023-05-04T07:34:55.015Z,934.33
2023-05-04T07:35:54.999Z,934.27
2023-05-04T07:36:55.002Z,934.28
2023-05-04T07:37:55.129Z,934.27
2023-05-04T07:38:55.044Z,934.29
2023-05-04T07:39:55.052Z,934.27
2023-05-04T07:40:55.114Z,934.28
2023-05-04T07:41:55.100Z,934.27
2023-05-04T07:42:55.145Z,934.36
2023-05-04T07:43:55.205Z,934.34
2023-05-04T07:44:55.189Z,934.35
2023-05-04T07:45:55.238Z,934.34
2023-05-04T07:46:55.155Z,934.34
2023-05-04T07:47:55.229Z,934.28
2023-05-04T07:48:55.181Z,934.34
2023-05-04T07:49:55.308Z,934.31
2023-05-04T07:50:55.209Z,934.32
2023-05-04T07:51:55.426Z,934.34
2023-05-04T07:52:55.249Z,934.35
2023-05-04T07:53:55.263Z,934.39
2023-05-04T07:54:55.378Z,934.41
2023-05-04T07:55:55.285Z,934.40
2023-05-04T07:56:55.307Z,934.42
2023-05-04T07:57:55.315Z,934.45
2023-05-04T07:58:55.338Z,934.49
2023-05-04T07:59:55.351Z,934.50
2023-05-04T08:00:55.593Z,934.52
2023-05-04T08:01:55.410Z,934.51
2023-05-04T08:02:55.416Z,934.53
2023-05-04T08:03:55.430Z,934.56
2023-05-04T08:04:55.426Z,934.61
2023-05-04T08:05:55.442Z,934.56
2023-05-04T08:06:55.549Z,934.62
2023-05-04T08:07:55.471Z,934.63
2023-05-04T08:08:55.487Z,934.64
2023-05-04T08:09:55.493Z,934.59
2023-05-04T08:11:02.017Z,934.60
2023-05-04T08:11:55.534Z,934.59
2023-05-04T08:12:55.694Z,934.56
2023-05-04T08:13:55.566Z,934.59
2023-05-04T08:14:55.574Z,934.59
2023-05-04T08:15:55.585Z,934.62
2023-05-04T08:16:55.662Z,934.63
2023-05-04T08:17:55.680Z,934.63
2023-05-04T08:18:55.729Z,934.61
2023-05-04T08:19:55.648Z,934.65
2023-05-04T08:20:55.663Z,934.62
2023-05-04T08:21:55.684Z,934.62
2023-05-04T08:22:55.697Z,934.67
2023-05-04T08:23:55.712Z,934.73
2023-05-04T08:24:55.816Z,934.72
2023-05-04T08:25:55.733Z,934.75
2023-05-04T08:27:07.185Z,934.76
2023-05-04T08:27:55.763Z,934.77
2023-05-04T08:28:55.780Z,934.82
2023-05-04T08:29:55.901Z,934.87
2023-05-04T08:30:55.811Z,934.93
2023-05-04T08:31:55.895Z,934.96
2023-05-04T08:32:55.902Z,935.01
2023-05-04T08:33:55.861Z,935.03
2023-05-04T08:34:55.870Z,935.05
2023-05-04T08:35:55.995Z,935.04
2023-05-04T08:36:55.901Z,935.07
2023-05-04T08:37:55.915Z,935.09
2023-05-04T08:38:55.926Z,935.07
2023-05-04T08:39:55.946Z,935.07
2023-05-04T08:40:56.065Z,935.08
2023-05-04T08:41:55.981Z,935.12
2023-05-04T08:42:56.001Z,935.12
2023-05-04T08:43:56.016Z,935.15
2023-05-04T08:44:56.025Z,935.21
2023-05-04T08:45:56.074Z,935.19
2023-05-04T08:46:56.158Z,935.23
2023-05-04T08:47:56.096Z,935.24
2023-05-04T08:48:56.161Z,935.26
2023-05-04T08:49:56.095Z,935.26
2023-05-04T08:50:56.118Z,935.30
2023-05-04T08:51:56.128Z,935.30
2023-05-04T08:52:56.246Z,935.30
2023-05-04T08:53:56.153Z,935.30
2023-05-04T08:54:56.187Z,935.39
2023-05-04T08:55:56.185Z,935.38
2023-05-04T08:56:56.196Z,935.38
2023-05-04T08:57:56.232Z,935.45
2023-05-04T08:58:56.336Z,935.43
2023-05-04T08:59:56.247Z,935.49
2023-05-04T09:00:56.397Z,935.49
2023-05-04T09:01:56.323Z,935.52
2023-05-04T09:02:56.378Z,935.51
2023-05-04T09:03:56.366Z,935.54
2023-05-04T09:04:56.442Z,935.55
2023-05-04T09:05:56.355Z,935.59
2023-05-04T09:06:56.366Z,935.62
2023-05-04T09:07:56.358Z,935.65
2023-05-04T09:08:56.424Z,935.68
2023-05-04T09:09:56.397Z,935.70
2023-05-04T09:10:56.503Z,935.74
2023-05-04T09:11:56.420Z,935.72
2023-05-04T09:12:56.469Z,935.74
2023-05-04T09:13:56.447Z,935.72
2023-05-04T09:14:56.462Z,935.70
2023-05-04T09:15:56.590Z,935.72
2023-05-04T09:16:56.548Z,935.66
2023-05-04T09:17:57.648Z,935.65
2023-05-04T09:18:56.519Z,935.73
2023-05-04T09:19:56.541Z,935.72
2023-05-04T09:20:56.689Z,935.72
2023-05-04T09:21:56.565Z,935.69
2023-05-04T09:22:56.577Z,935.74
2023-05-04T09:23:56.611Z,935.71
2023-05-04T09:24:56.615Z,935.74
2023-05-04T09:25:56.721Z,935.77
2023-05-04T09:26:56.637Z,935.73
2023-05-04T09:27:56.660Z,935.75
2023-05-04T09:28:56.701Z,935.80
2023-05-04T09:29:56.709Z,935.78
2023-05-04T09:30:56.716Z,935.86
2023-05-04T09:31:56.820Z,935.89
2023-05-04T09:32:56.735Z,935.88
2023-05-04T09:33:56.749Z,935.88
2023-05-04T09:34:56.766Z,935.94
2023-05-04T09:35:56.785Z,935.95
2023-05-04T09:36:56.943Z,935.96
2023-05-04T09:37:56.799Z,935.96
2023-05-04T09:38:56.822Z,935.97
2023-05-04T09:39:56.841Z,935.96
2023-05-04T09:40:56.852Z,935.98
2023-05-04T09:41:56.901Z,935.98
2023-05-04T09:42:56.993Z,936.00
2023-05-04T09:43:56.910Z,935.96
2023-05-04T09:44:56.920Z,935.98
2023-05-04T09:45:56.966Z,935.98
2023-05-04T09:46:56.930Z,935.94
2023-05-04T09:47:56.984Z,935.93
2023-05-04T09:48:57.682Z,935.98
2023-05-04T09:49:57.008Z,935.97
2023-05-04T09:50:57.005Z,935.97
2023-05-04T09:51:57.013Z,935.96
2023-05-04T09:52:57.175Z,935.96
2023-05-04T09:53:57.048Z,935.98
2023-05-04T09:54:57.158Z,935.99
2023-05-04T09:55:57.065Z,935.97
2023-05-04T09:56:57.096Z,935.99
2023-05-04T09:57:57.097Z,936.06
2023-05-04T09:58:57.117Z,936.05
2023-05-04T09:59:57.129Z,936.08
2023-05-04T10:00:57.242Z,936.06
2023-05-04T10:01:58.693Z,936.07
2023-05-04T10:02:57.202Z,936.10
2023-05-04T10:03:57.191Z,936.08
2023-05-04T10:04:57.288Z,936.08
2023-05-04T10:05:57.223Z,936.11
2023-05-04T10:06:57.327Z,936.12
2023-05-04T10:07:57.250Z,936.12
2023-05-04T10:08:57.281Z,936.14
2023-05-04T10:09:57.274Z,936.15
2023-05-04T10:10:57.308Z,936.17
2023-05-04T10:11:57.983Z,936.20
2023-05-04T10:12:57.470Z,936.19
2023-05-04T10:13:57.336Z,936.19
2023-05-04T10:14:57.356Z,936.19
2023-05-04T10:15:57.405Z,936.25
2023-05-04T10:16:57.372Z,936.27
2023-05-04T10:17:57.465Z,936.29
2023-05-04T10:18:57.507Z,936.28
2023-05-04T10:19:57.424Z,936.30
2023-05-04T10:20:57.438Z,936.28
2023-05-04T10:21:57.457Z,936.31
2023-05-04T10:22:57.461Z,936.32
2023-05-04T10:23:57.576Z,936.28
2023-05-04T10:24:57.507Z,936.31
2023-05-04T10:25:57.508Z,936.34
2023-05-04T10:26:57.520Z,936.33
2023-05-04T10:27:57.542Z,936.36
2023-05-04T10:28:57.655Z,936.38
2023-05-04T10:29:57.572Z,936.35
2023-05-04T10:30:57.586Z,936.42
2023-05-04T10:31:57.780Z,936.39
2023-05-04T10:32:57.728Z,936.41
2023-05-04T10:33:57.628Z,936.40
2023-05-04T10:34:57.740Z,936.43
2023-05-04T10:35:57.660Z,936.42
2023-05-04T10:36:57.665Z,936.45
2023-05-04T10:37:57.695Z,936.46
2023-05-04T10:38:57.700Z,936.42
2023-05-04T10:39:57.720Z,936.43
2023-05-04T10:40:57.858Z,936.41
2023-05-04T10:41:57.739Z,936.46
2023-05-04T10:42:57.763Z,936.46
2023-05-04T10:43:57.778Z,936.51
2023-05-04T10:44:57.785Z,936.52
2023-05-04T10:45:57.935Z,936.51
2023-05-04T10:46:59.722Z,936.52
2023-05-04T10:47:57.916Z,936.52
2023-05-04T10:48:57.863Z,936.51
2023-05-04T10:49:57.866Z,936.53
2023-05-04T10:50:57.883Z,936.58
2023-05-04T10:51:57.997Z,936.57
2023-05-04T10:53:00.035Z,936.58
2023-05-04T10:53:57.918Z,936.59
2023-05-04T10:54:57.944Z,936.62
2023-05-04T10:55:57.947Z,936.62
2023-05-04T10:56:57.989Z,936.67
2023-05-04T10:57:58.086Z,936.64
2023-05-04T10:58:58.011Z,936.65
2023-05-04T10:59:58.013Z,936.73
2023-05-04T11:00:58.096Z,936.67
2023-05-04T11:01:58.032Z,936.66
2023-05-04T11:02:58.122Z,936.67
2023-05-04T11:03:58.175Z,936.69
2023-05-04T11:04:58.105Z,936.67
2023-05-04T11:05:58.093Z,936.71
2023-05-04T11:06:58.117Z,936.73
2023-05-04T11:08:00.403Z,936.76
2023-05-04T11:08:58.248Z,936.73
2023-05-04T11:09:58.159Z,936.76
2023-05-04T11:10:58.165Z,936.75
2023-05-04T11:11:58.182Z,936.74
2023-05-04T11:12:58.406Z,936.72
2023-05-04T11:13:58.221Z,936.70
2023-05-04T11:14:58.328Z,936.69
2023-05-04T11:15:58.321Z,936.72
2023-05-04T11:16:58.264Z,936.71
2023-05-04T11:17:58.302Z,936.74
2023-05-04T11:18:58.285Z,936.75
2023-05-04T11:19:58.320Z,936.74
2023-05-04T11:20:58.422Z,936.77
2023-05-04T11:21:58.337Z,936.81
2023-05-04T11:22:58.350Z,936.79
2023-05-04T11:23:58.396Z,936.80
2023-05-04T11:24:58.375Z,936.84
2023-05-04T11:25:58.428Z,936.79
2023-05-04T11:26:58.503Z,936.80
2023-05-04T11:27:58.461Z,936.79
2023-05-04T11:28:58.550Z,936.79
2023-05-04T11:29:58.452Z,936.78
2023-05-04T11:30:58.482Z,936.79
2023-05-04T11:31:58.629Z,936.81
2023-05-04T11:32:58.537Z,936.81
2023-05-04T11:33:58.504Z,936.83
2023-05-04T11:34:58.529Z,936.84
2023-05-04T11:35:58.552Z,936.82
2023-05-04T11:36:58.549Z,936.81
2023-05-04T11:37:58.678Z,936.84
2023-05-04T11:38:58.582Z,936.84
2023-05-04T11:39:58.609Z,936.87
2023-05-04T11:40:58.633Z,936.84
2023-05-04T11:41:58.630Z,936.87
2023-05-04T11:42:58.656Z,936.88
2023-05-04T11:43:58.767Z,936.88
2023-05-04T11:44:58.718Z,936.89
2023-05-04T11:45:58.694Z,936.95
2023-05-04T11:46:58.704Z,936.92
2023-05-04T11:47:58.770Z,936.96
2023-05-04T11:48:58.725Z,936.89
2023-05-04T11:49:58.849Z,936.91
2023-05-04T11:50:58.771Z,936.92
2023-05-04T11:51:58.785Z,936.91
2023-05-04T11:52:58.791Z,936.91
2023-05-04T11:53:58.817Z,936.90
2023-05-04T11:54:58.825Z,936.89
2023-05-04T11:55:58.931Z,936.91
2023-05-04T11:56:58.859Z,936.91
2023-05-04T11:57:58.893Z,936.88
2023-05-04T11:58:58.874Z,936.86
2023-05-04T11:59:58.888Z,936.90
2023-05-04T12:00:59.014Z,936.90
2023-05-04T12:01:59.122Z,936.90
2023-05-04T12:02:59.059Z,936.87
2023-05-04T12:03:59.021Z,936.91
2023-05-04T12:04:59.002Z,936.92
2023-05-04T12:05:59.053Z,936.93
2023-05-04T12:07:01.522Z,936.92
2023-05-04T12:07:59.113Z,936.91
2023-05-04T12:08:59.020Z,936.94
2023-05-04T12:09:59.043Z,936.93
2023-05-04T12:10:59.050Z,936.90
2023-05-04T12:11:59.071Z,936.90
2023-05-04T12:12:59.159Z,936.87
2023-05-04T12:13:59.201Z,936.89
2023-05-04T12:14:59.111Z,936.90
2023-05-04T12:15:59.212Z,936.91
2023-05-04T12:16:59.171Z,936.95
2023-05-04T12:18:00.853Z,936.97
2023-05-04T12:18:59.168Z,936.97
2023-05-04T12:19:59.340Z,936.99
2023-05-04T12:20:59.196Z,936.95
2023-05-04T12:21:59.218Z,936.99
2023-05-04T12:22:59.233Z,936.96
2023-05-04T12:23:59.245Z,936.92
2023-05-04T12:24:59.258Z,936.97
2023-05-04T12:25:59.419Z,936.94
2023-05-04T12:26:59.288Z,936.95
2023-05-04T12:27:59.296Z,936.96
2023-05-04T12:28:59.329Z,936.92